23MA weather

Westford Regency Heliport
Westford, Massachusetts, United States

Public forecast

Using degrees Fahrenheit for public forecast. Weather courtesy of forecast.io.

METAR (pilot weather report)

Closest report is Laurence G Hanscom Field, 8.4 nm (15.6 km) SE. Retrieved 2019/07/16 14:56 UTC (27 minutes ago):

KBED 161456Z 23005KT 10SM CLR 28/16 A3004 RMK AO2 SLP184 T02830156 58009

TAF (pilot weather forecast)

Closest forecast is Laurence G Hanscom Field, 8.4 nm (15.6 km) SE. Retrieved 2019/07/16 12:22 UTC (3 hours ago):

TAF KBED 161120Z 1612/1712 VRB03KT P6SM BKN250 FM161600 24004KT P6SM FEW250 FM170000 19006KT P6SM SCT070 FM170600 22004KT P6SM SCT080